createdAt,value
2017-07-28T00:02:03.230Z,66.4
2017-07-28T00:07:03.907Z,66.6
2017-07-28T00:12:03.775Z,66.3
2017-07-28T00:17:03.998Z,66.3
2017-07-28T00:22:03.202Z,66.1
2017-07-28T00:27:03.905Z,66.2
2017-07-28T00:32:03.669Z,66.2
2017-07-28T00:37:03.228Z,66.3
2017-07-28T00:42:03.810Z,66.3
2017-07-28T00:47:03.589Z,66.3
2017-07-28T00:52:03.249Z,66.4
2017-07-28T00:57:03.850Z,66.4
2017-07-28T01:02:03.558Z,66.6
2017-07-28T01:07:03.529Z,66.6
2017-07-28T01:12:03.398Z,66.6
2017-07-28T01:17:04.120Z,66.6
2017-07-28T01:22:03.718Z,66.6
2017-07-28T01:27:03.540Z,66.5
2017-07-28T01:32:03.163Z,66.5
2017-07-28T01:37:03.904Z,66.6
2017-07-28T01:42:03.544Z,66.4
2017-07-28T01:47:03.313Z,66.4
2017-07-28T01:52:03.695Z,66.4
2017-07-28T01:57:03.381Z,66.4
2017-07-28T02:02:03.093Z,66.4
2017-07-28T02:07:03.854Z,66.4
2017-07-28T02:12:03.622Z,66.6
2017-07-28T02:17:03.584Z,66.6
2017-07-28T02:22:03.355Z,66.6
2017-07-28T02:27:04.012Z,66.5
2017-07-28T02:32:03.681Z,66.6
2017-07-28T02:37:03.303Z,66.6
2017-07-28T02:42:03.608Z,66.7
2017-07-28T02:47:03.934Z,66.7
2017-07-28T02:52:03.387Z,66.6
2017-07-28T02:57:03.723Z,66.7
2017-07-28T03:02:03.250Z,66.7
2017-07-28T03:07:03.490Z,67.0
2017-07-28T03:12:03.024Z,66.6
2017-07-28T03:17:12.774Z,66.6
2017-07-28T03:22:03.984Z,66.4
2017-07-28T03:27:03.448Z,66.4
2017-07-28T03:32:24.297Z,66.4
2017-07-28T03:37:03.389Z,66.3
2017-07-28T03:42:03.688Z,66.3
2017-07-28T03:47:29.148Z,66.2
2017-07-28T03:52:03.533Z,66.1
2017-07-28T03:57:03.053Z,66.0
2017-07-28T04:02:24.184Z,66.1
2017-07-28T04:07:03.235Z,66.2
2017-07-28T04:12:03.781Z,66.0
2017-07-28T04:17:23.926Z,66.0
2017-07-28T04:22:03.692Z,65.8
2017-07-28T04:27:03.210Z,65.5
2017-07-28T04:32:26.794Z,65.3
2017-07-28T04:37:03.970Z,65.3
2017-07-28T04:42:03.319Z,65.0
2017-07-28T04:47:28.717Z,64.6
2017-07-28T04:52:03.172Z,64.5
2017-07-28T04:57:03.652Z,64.3
2017-07-28T05:02:27.424Z,63.7
2017-07-28T05:07:03.634Z,63.3
2017-07-28T05:12:03.245Z,63.2
2017-07-28T05:17:24.342Z,63.2
2017-07-28T05:22:03.187Z,63.0
2017-07-28T05:27:03.617Z,63.2
2017-07-28T05:32:28.123Z,63.2
2017-07-28T05:37:03.150Z,63.1
2017-07-28T05:42:03.676Z,63.2
2017-07-28T05:52:03.487Z,63.5
2017-07-28T05:57:03.880Z,63.4
2017-07-28T06:02:27.822Z,63.5
2017-07-28T06:07:03.084Z,63.5
2017-07-28T06:12:03.735Z,63.3
2017-07-28T06:17:25.321Z,63.3
2017-07-28T06:22:03.293Z,63.1
2017-07-28T06:27:03.739Z,62.9
2017-07-28T06:32:23.343Z,62.8
2017-07-28T06:37:03.288Z,62.8
2017-07-28T06:42:03.780Z,62.3
2017-07-28T06:47:28.109Z,62.0
2017-07-28T06:52:03.173Z,61.9
2017-07-28T06:57:03.659Z,61.8
2017-07-28T07:02:21.183Z,61.7
2017-07-28T07:07:03.561Z,61.9
2017-07-28T07:12:03.099Z,62.3
2017-07-28T07:17:28.536Z,62.3
2017-07-28T07:22:03.100Z,61.6
2017-07-28T07:27:03.608Z,61.7
2017-07-28T07:37:03.228Z,62.9
2017-07-28T07:42:03.746Z,62.8
2017-07-28T07:47:32.235Z,63.4
2017-07-28T07:52:03.730Z,63.5
2017-07-28T07:57:03.246Z,63.2
2017-07-28T08:02:28.008Z,62.4
2017-07-28T08:07:03.696Z,62.3
2017-07-28T08:12:03.209Z,62.2
2017-07-28T08:17:28.510Z,61.6
2017-07-28T08:22:03.432Z,61.4
2017-07-28T08:27:03.284Z,61.4
2017-07-28T08:32:23.835Z,60.9
2017-07-28T08:37:03.219Z,60.8
2017-07-28T08:42:03.815Z,61.1
2017-07-28T08:47:26.040Z,61.0
2017-07-28T08:52:03.166Z,60.9
2017-07-28T08:57:03.725Z,60.9
2017-07-28T09:02:29.150Z,61.2
2017-07-28T09:07:03.061Z,61.9
2017-07-28T09:12:03.803Z,61.9
2017-07-28T09:17:28.450Z,62.3
2017-07-28T09:22:03.885Z,62.0
2017-07-28T09:27:03.489Z,62.5
2017-07-28T09:32:25.899Z,62.5
2017-07-28T09:37:03.901Z,62.6
2017-07-28T09:42:03.341Z,61.4
2017-07-28T09:47:25.153Z,61.6
2017-07-28T09:52:03.383Z,61.5
2017-07-28T09:57:03.409Z,61.6
2017-07-28T10:02:26.591Z,60.8
2017-07-28T10:07:03.788Z,60.3
2017-07-28T10:12:03.260Z,60.9
2017-07-28T10:17:25.490Z,60.4
2017-07-28T10:22:03.544Z,60.4
2017-07-28T10:27:04.026Z,59.8
2017-07-28T10:32:25.320Z,60.4
2017-07-28T10:37:03.085Z,60.4
2017-07-28T10:42:03.641Z,59.5
2017-07-28T10:47:23.466Z,59.4
2017-07-28T10:52:03.711Z,59.6
2017-07-28T10:57:03.258Z,59.7
2017-07-28T11:02:37.001Z,58.2
2017-07-28T11:07:03.682Z,58.5
2017-07-28T11:12:03.573Z,58.1
2017-07-28T11:17:32.558Z,58.4
2017-07-28T11:22:03.135Z,58.4
2017-07-28T11:27:03.686Z,59.9
2017-07-28T11:32:25.783Z,59.7
2017-07-28T11:37:03.351Z,59.7
2017-07-28T11:42:03.751Z,58.5
2017-07-28T11:47:24.210Z,57.8
2017-07-28T11:52:03.782Z,58.0
2017-07-28T11:57:03.243Z,58.0
2017-07-28T12:02:24.193Z,57.6
2017-07-28T12:07:03.628Z,59.0
2017-07-28T12:12:03.283Z,59.0
2017-07-28T12:17:24.125Z,58.4
2017-07-28T12:22:03.454Z,57.9
2017-07-28T12:27:03.872Z,57.9
2017-07-28T12:32:27.785Z,58.7
2017-07-28T12:37:03.220Z,58.5
2017-07-28T12:42:03.700Z,58.3
2017-07-28T12:47:28.090Z,58.2
2017-07-28T12:52:03.807Z,58.2
2017-07-28T12:57:03.374Z,57.8
2017-07-28T13:02:24.053Z,58.2
2017-07-28T13:07:03.620Z,58.0
2017-07-28T13:12:03.240Z,58.5
2017-07-28T13:17:21.980Z,58.0
2017-07-28T13:22:03.060Z,58.0
2017-07-28T13:27:03.570Z,58.6
2017-07-28T13:32:28.691Z,58.0
2017-07-28T13:37:03.258Z,58.6
2017-07-28T13:42:04.065Z,58.2
2017-07-28T13:47:29.370Z,59.1
2017-07-28T13:52:03.867Z,58.1
2017-07-28T13:57:03.335Z,58.1
2017-07-28T14:02:27.849Z,59.1
2017-07-28T14:07:03.532Z,58.5
2017-07-28T14:12:03.114Z,58.3
2017-07-28T14:17:22.428Z,57.8
2017-07-28T14:22:03.108Z,58.0
2017-07-28T14:27:03.620Z,58.0
2017-07-28T14:32:26.642Z,58.1
2017-07-28T14:37:03.276Z,58.2
2017-07-28T14:42:03.740Z,57.1
2017-07-28T14:47:28.094Z,57.4
2017-07-28T14:52:03.328Z,54.4
2017-07-28T14:57:03.758Z,54.4
2017-07-28T15:02:22.988Z,56.4
2017-07-28T15:07:04.135Z,48.6
2017-07-28T15:12:03.482Z,44.8
2017-07-28T15:17:21.448Z,42.2
2017-07-28T15:22:03.839Z,42.2
2017-07-28T15:27:03.287Z,42.7
2017-07-28T15:32:25.017Z,44.2
2017-07-28T15:37:03.557Z,44.1
2017-07-28T15:42:03.860Z,42.9
2017-07-28T15:47:23.840Z,42.9
2017-07-28T15:52:03.470Z,42.1
2017-07-28T15:57:03.822Z,42.1
2017-07-28T16:02:20.999Z,40.5
2017-07-28T16:07:03.629Z,39.0
2017-07-28T16:12:03.156Z,39.0
2017-07-28T16:17:20.142Z,38.6
2017-07-28T16:22:03.846Z,38.9
2017-07-28T16:27:03.236Z,38.9
2017-07-28T16:32:21.299Z,43.2
2017-07-28T16:37:03.438Z,46.1
2017-07-28T16:42:03.751Z,43.9
2017-07-28T16:47:23.539Z,45.0
2017-07-28T16:52:03.628Z,49.8
2017-07-28T16:57:03.005Z,49.7
2017-07-28T17:02:19.564Z,50.7
2017-07-28T17:07:03.719Z,50.8
2017-07-28T17:12:03.341Z,44.7
2017-07-28T17:22:03.413Z,41.3
2017-07-28T17:27:03.767Z,43.5
2017-07-28T17:32:16.236Z,49.8
2017-07-28T17:37:03.204Z,52.4
2017-07-28T17:42:03.635Z,51.0
2017-07-28T17:47:22.133Z,53.6
2017-07-28T17:52:03.192Z,53.3
2017-07-28T17:57:03.667Z,52.8
2017-07-28T18:02:24.334Z,56.3
2017-07-28T18:07:03.714Z,56.3
2017-07-28T18:12:03.427Z,57.7
2017-07-28T18:17:23.940Z,58.1
2017-07-28T18:22:03.619Z,58.1
2017-07-28T18:27:03.952Z,58.4
2017-07-28T18:32:27.299Z,58.8
2017-07-28T18:37:03.366Z,59.1
2017-07-28T18:42:03.854Z,59.0
2017-07-28T18:47:28.139Z,59.2
2017-07-28T18:52:03.862Z,59.2
2017-07-28T18:57:03.481Z,59.3
2017-07-28T19:02:26.273Z,59.5
2017-07-28T19:07:03.840Z,59.5
2017-07-28T19:12:03.957Z,59.6
2017-07-28T19:17:26.512Z,59.6
2017-07-28T19:22:03.724Z,59.6
2017-07-28T19:27:03.247Z,59.7
2017-07-28T19:32:31.546Z,59.6
2017-07-28T19:37:03.954Z,59.6
2017-07-28T19:42:03.402Z,59.6
2017-07-28T19:47:08.684Z,59.6
2017-07-28T19:52:03.205Z,59.8
2017-07-28T19:57:03.546Z,59.7
2017-07-28T20:02:04.158Z,59.8
2017-07-28T20:07:03.303Z,59.7
2017-07-28T20:12:03.832Z,59.8
2017-07-28T20:17:04.997Z,59.7
2017-07-28T20:22:03.574Z,59.6
2017-07-28T20:27:03.965Z,59.6
2017-07-28T20:32:03.600Z,59.7
2017-07-28T20:37:03.933Z,59.7
2017-07-28T20:42:03.095Z,59.7
2017-07-28T20:47:04.321Z,59.7
2017-07-28T20:52:03.667Z,59.8
2017-07-28T20:57:04.068Z,59.7
2017-07-28T21:02:10.527Z,59.9
2017-07-28T21:07:03.834Z,59.8
2017-07-28T21:12:03.925Z,59.6
2017-07-28T21:17:09.858Z,59.8
2017-07-28T21:22:04.061Z,59.9
2017-07-28T21:27:03.488Z,60.0
2017-07-28T21:32:05.458Z,60.0
2017-07-28T21:37:04.569Z,60.0
2017-07-28T21:42:03.450Z,60.1
2017-07-28T21:47:11.528Z,60.1
2017-07-28T21:52:03.704Z,60.2
2017-07-28T21:57:04.511Z,60.3
2017-07-28T22:02:03.092Z,60.5
2017-07-28T22:07:03.367Z,60.4
2017-07-28T22:12:03.744Z,60.4
2017-07-28T22:22:03.720Z,60.3
2017-07-28T22:27:03.519Z,60.3
2017-07-28T22:32:03.580Z,60.4
2017-07-28T22:37:03.595Z,60.4
2017-07-28T22:42:03.477Z,60.4
2017-07-28T22:47:03.428Z,60.3
2017-07-28T22:52:03.290Z,60.5
2017-07-28T22:57:03.460Z,60.5
2017-07-28T23:02:03.612Z,60.7
2017-07-28T23:07:03.473Z,60.8
2017-07-28T23:12:03.919Z,60.7
2017-07-28T23:17:04.045Z,60.6
2017-07-28T23:22:03.519Z,61.0
2017-07-28T23:27:03.643Z,60.8
2017-07-28T23:32:03.500Z,60.8
2017-07-28T23:37:03.494Z,60.8
2017-07-28T23:42:03.562Z,61.0
2017-07-28T23:47:03.473Z,60.8
2017-07-28T23:52:03.338Z,60.8
2017-07-28T23:57:03.269Z,60.8
